sensor_id;sensor_type;location;lat;lon;timestamp;temperature;humidity
46652;DHT22;32377;52.182;5.398;2023-03-01T00:01:47;-0.30;99.90
46652;DHT22;32377;52.182;5.398;2023-03-01T00:04:12;-0.30;99.90
46652;DHT22;32377;52.182;5.398;2023-03-01T00:06:38;-0.40;99.90
46652;DHT22;32377;52.182;5.398;2023-03-01T00:09:04;-0.30;99.90
46652;DHT22;32377;52.182;5.398;2023-03-01T00:11:31;-0.30;99.90
46652;DHT22;32377;52.182;5.398;2023-03-01T00:13:59;-0.30;99.90
46652;DHT22;32377;52.182;5.398;2023-03-01T00:16:29;-0.30;99.90
46652;DHT22;32377;52.182;5.398;2023-03-01T00:18:55;-0.30;99.90
46652;DHT22;32377;52.182;5.398;2023-03-01T00:21:22;-0.20;99.90
46652;DHT22;32377;52.182;5.398;2023-03-01T00:23:49;-0.20;99.90
46652;DHT22;32377;52.182;5.398;2023-03-01T00:26:16;-0.10;99.90
46652;DHT22;32377;52.182;5.398;2023-03-01T00:28:42;-0.10;99.90
46652;DHT22;32377;52.182;5.398;2023-03-01T00:31:14;-0.10;99.90
46652;DHT22;32377;52.182;5.398;2023-03-01T00:33:41;-0.10;99.90
46652;DHT22;32377;52.182;5.398;2023-03-01T00:36:08;0.00;99.90
46652;DHT22;32377;52.182;5.398;2023-03-01T00:38:44;-0.10;99.90
46652;DHT22;32377;52.182;5.398;2023-03-01T00:41:15;0.00;99.90
46652;DHT22;32377;52.182;5.398;2023-03-01T00:43:42;-0.10;99.90
46652;DHT22;32377;52.182;5.398;2023-03-01T00:46:22;-0.10;99.90
46652;DHT22;32377;52.182;5.398;2023-03-01T00:48:48;-0.10;99.90
46652;DHT22;32377;52.182;5.398;2023-03-01T00:51:20;-0.10;99.90
46652;DHT22;32377;52.182;5.398;2023-03-01T00:53:46;-0.10;99.90
46652;DHT22;32377;52.182;5.398;2023-03-01T00:56:14;-0.10;99.90
46652;DHT22;32377;52.182;5.398;2023-03-01T00:58:40;-0.10;99.90
46652;DHT22;32377;52.182;5.398;2023-03-01T01:01:11;-0.10;99.90
46652;DHT22;32377;52.182;5.398;2023-03-01T01:03:43;-0.20;99.90
46652;DHT22;32377;52.182;5.398;2023-03-01T01:06:14;-0.20;99.90
46652;DHT22;32377;52.182;5.398;2023-03-01T01:08:39;-0.20;99.90
46652;DHT22;32377;52.182;5.398;2023-03-01T01:11:05;-0.30;99.90
46652;DHT22;32377;52.182;5.398;2023-03-01T01:13:31;-0.20;99.90
46652;DHT22;32377;52.182;5.398;2023-03-01T01:16:01;-0.20;99.90
46652;DHT22;32377;52.182;5.398;2023-03-01T01:18:26;-0.20;99.90
46652;DHT22;32377;52.182;5.398;2023-03-01T01:20:52;-0.20;99.90
46652;DHT22;32377;52.182;5.398;2023-03-01T01:23:18;-0.30;99.90
46652;DHT22;32377;52.182;5.398;2023-03-01T01:25:43;-0.30;99.90
46652;DHT22;32377;52.182;5.398;2023-03-01T01:28:09;-0.40;99.90
46652;DHT22;32377;52.182;5.398;2023-03-01T01:30:34;-0.50;99.90
46652;DHT22;32377;52.182;5.398;2023-03-01T01:33:00;-0.50;99.90
46652;DHT22;32377;52.182;5.398;2023-03-01T01:35:25;-0.50;99.90
46652;DHT22;32377;52.182;5.398;2023-03-01T01:37:51;-0.50;99.90
46652;DHT22;32377;52.182;5.398;2023-03-01T01:40:16;-0.50;99.90
46652;DHT22;32377;52.182;5.398;2023-03-01T01:42:42;-0.50;99.90
46652;DHT22;32377;52.182;5.398;2023-03-01T01:45:32;-0.60;99.90
46652;DHT22;32377;52.182;5.398;2023-03-01T01:48:03;-0.50;99.90
46652;DHT22;32377;52.182;5.398;2023-03-01T01:50:30;-0.50;99.90
46652;DHT22;32377;52.182;5.398;2023-03-01T01:53:09;-0.50;99.90
46652;DHT22;32377;52.182;5.398;2023-03-01T01:55:37;-0.50;99.90
46652;DHT22;32377;52.182;5.398;2023-03-01T01:58:07;-0.60;99.90
46652;DHT22;32377;52.182;5.398;2023-03-01T02:00:34;-0.60;99.90
46652;DHT22;32377;52.182;5.398;2023-03-01T02:03:04;-0.70;99.90
46652;DHT22;32377;52.182;5.398;2023-03-01T02:06:04;-0.70;99.90
46652;DHT22;32377;52.182;5.398;2023-03-01T02:08:33;-0.80;99.90
46652;DHT22;32377;52.182;5.398;2023-03-01T02:11:01;-0.80;99.90
46652;DHT22;32377;52.182;5.398;2023-03-01T02:13:30;-0.90;99.90
46652;DHT22;32377;52.182;5.398;2023-03-01T02:15:56;-0.90;99.90
46652;DHT22;32377;52.182;5.398;2023-03-01T02:18:23;-1.00;99.90
46652;DHT22;32377;52.182;5.398;2023-03-01T02:21:00;-1.00;99.90
46652;DHT22;32377;52.182;5.398;2023-03-01T02:23:28;-1.00;99.90
46652;DHT22;32377;52.182;5.398;2023-03-01T02:28:38;-1.10;99.90
46652;DHT22;32377;52.182;5.398;2023-03-01T02:31:07;-1.10;99.90
46652;DHT22;32377;52.182;5.398;2023-03-01T02:33:53;-1.20;99.90
46652;DHT22;32377;52.182;5.398;2023-03-01T02:36:23;-1.20;99.90
46652;DHT22;32377;52.182;5.398;2023-03-01T02:38:52;-1.30;99.90
46652;DHT22;32377;52.182;5.398;2023-03-01T02:41:20;-1.30;99.90
46652;DHT22;32377;52.182;5.398;2023-03-01T02:43:46;-1.40;99.90
46652;DHT22;32377;52.182;5.398;2023-03-01T02:46:21;-1.30;99.90
46652;DHT22;32377;52.182;5.398;2023-03-01T02:48:51;-1.40;99.90
46652;DHT22;32377;52.182;5.398;2023-03-01T02:51:47;-1.40;99.90
46652;DHT22;32377;52.182;5.398;2023-03-01T02:56:45;-1.50;99.90
46652;DHT22;32377;52.182;5.398;2023-03-01T02:59:19;-1.50;99.90
46652;DHT22;32377;52.182;5.398;2023-03-01T03:01:45;-1.50;99.90
46652;DHT22;32377;52.182;5.398;2023-03-01T03:04:15;-1.60;99.90
46652;DHT22;32377;52.182;5.398;2023-03-01T03:06:47;-1.60;99.90
46652;DHT22;32377;52.182;5.398;2023-03-01T03:09:14;-1.60;99.90
46652;DHT22;32377;52.182;5.398;2023-03-01T03:11:40;-1.60;99.90
46652;DHT22;32377;52.182;5.398;2023-03-01T03:14:07;-1.60;99.90
46652;DHT22;32377;52.182;5.398;2023-03-01T03:16:39;-1.70;99.90
46652;DHT22;32377;52.182;5.398;2023-03-01T03:19:05;-1.70;99.90
46652;DHT22;32377;52.182;5.398;2023-03-01T03:21:32;-1.70;99.90
46652;DHT22;32377;52.182;5.398;2023-03-01T03:23:58;-1.70;99.90
46652;DHT22;32377;52.182;5.398;2023-03-01T03:26:24;-1.70;99.90
46652;DHT22;32377;52.182;5.398;2023-03-01T03:28:49;-1.80;99.90
46652;DHT22;32377;52.182;5.398;2023-03-01T03:31:15;-1.80;99.90
46652;DHT22;32377;52.182;5.398;2023-03-01T03:33:41;-1.80;99.90
46652;DHT22;32377;52.182;5.398;2023-03-01T03:36:06;-1.80;99.90
46652;DHT22;32377;52.182;5.398;2023-03-01T03:38:38;-1.80;99.90
46652;DHT22;32377;52.182;5.398;2023-03-01T03:41:06;-1.90;99.90
46652;DHT22;32377;52.182;5.398;2023-03-01T03:43:34;-1.90;99.90
46652;DHT22;32377;52.182;5.398;2023-03-01T03:46:00;-1.90;99.90
46652;DHT22;32377;52.182;5.398;2023-03-01T03:48:26;-2.00;99.90
46652;DHT22;32377;52.182;5.398;2023-03-01T03:50:56;-2.00;99.90
46652;DHT22;32377;52.182;5.398;2023-03-01T03:53:23;-2.10;99.90
46652;DHT22;32377;52.182;5.398;2023-03-01T03:55:49;-2.00;99.90
46652;DHT22;32377;52.182;5.398;2023-03-01T03:58:17;-2.10;99.90
46652;DHT22;32377;52.182;5.398;2023-03-01T04:00:46;-2.10;99.90
46652;DHT22;32377;52.182;5.398;2023-03-01T04:03:13;-2.10;99.90
46652;DHT22;32377;52.182;5.398;2023-03-01T04:05:41;-2.10;99.90
46652;DHT22;32377;52.182;5.398;2023-03-01T04:08:07;-2.10;99.90
46652;DHT22;32377;52.182;5.398;2023-03-01T04:10:40;-2.20;99.90
46652;DHT22;32377;52.182;5.398;2023-03-01T04:13:07;-2.20;99.90
46652;DHT22;32377;52.182;5.398;2023-03-01T04:15:33;-2.20;99.90
46652;DHT22;32377;52.182;5.398;2023-03-01T04:17:59;-2.20;99.90
46652;DHT22;32377;52.182;5.398;2023-03-01T04:20:28;-2.10;99.90
46652;DHT22;32377;52.182;5.398;2023-03-01T04:25:24;-2.20;99.90
46652;DHT22;32377;52.182;5.398;2023-03-01T04:27:50;-2.20;99.90
46652;DHT22;32377;52.182;5.398;2023-03-01T04:30:16;-2.20;99.90
46652;DHT22;32377;52.182;5.398;2023-03-01T04:32:41;-2.20;99.90
46652;DHT22;32377;52.182;5.398;2023-03-01T04:35:07;-2.20;99.90
46652;DHT22;32377;52.182;5.398;2023-03-01T04:37:33;-2.20;99.90
46652;DHT22;32377;52.182;5.398;2023-03-01T04:40:00;-2.20;99.90
46652;DHT22;32377;52.182;5.398;2023-03-01T04:42:26;-2.20;99.90
46652;DHT22;32377;52.182;5.398;2023-03-01T04:44:52;-2.30;99.90
46652;DHT22;32377;52.182;5.398;2023-03-01T04:47:17;-2.30;99.90
46652;DHT22;32377;52.182;5.398;2023-03-01T04:49:43;-2.30;99.90
46652;DHT22;32377;52.182;5.398;2023-03-01T04:52:08;-2.30;99.90
46652;DHT22;32377;52.182;5.398;2023-03-01T04:54:35;-2.40;99.90
46652;DHT22;32377;52.182;5.398;2023-03-01T04:59:10;-2.40;99.90
46652;DHT22;32377;52.182;5.398;2023-03-01T05:01:37;-2.40;99.90
46652;DHT22;32377;52.182;5.398;2023-03-01T05:04:03;-2.40;99.90
46652;DHT22;32377;52.182;5.398;2023-03-01T05:06:30;-2.40;99.90
46652;DHT22;32377;52.182;5.398;2023-03-01T05:08:56;-2.40;99.90
46652;DHT22;32377;52.182;5.398;2023-03-01T05:11:23;-2.40;99.90
46652;DHT22;32377;52.182;5.398;2023-03-01T05:13:48;-2.40;99.90
46652;DHT22;32377;52.182;5.398;2023-03-01T05:16:18;-2.50;99.90
46652;DHT22;32377;52.182;5.398;2023-03-01T05:18:45;-2.50;99.90
46652;DHT22;32377;52.182;5.398;2023-03-01T05:21:13;-2.40;99.90
46652;DHT22;32377;52.182;5.398;2023-03-01T05:23:41;-2.40;99.90
46652;DHT22;32377;52.182;5.398;2023-03-01T05:26:07;-2.40;99.90
46652;DHT22;32377;52.182;5.398;2023-03-01T05:28:33;-2.50;99.90
46652;DHT22;32377;52.182;5.398;2023-03-01T05:30:59;-2.50;99.90
46652;DHT22;32377;52.182;5.398;2023-03-01T05:33:25;-2.50;99.90
46652;DHT22;32377;52.182;5.398;2023-03-01T05:35:51;-2.50;99.90
46652;DHT22;32377;52.182;5.398;2023-03-01T05:38:20;-2.60;99.90
46652;DHT22;32377;52.182;5.398;2023-03-01T05:40:47;-2.60;99.90
46652;DHT22;32377;52.182;5.398;2023-03-01T05:43:14;-2.50;99.90
46652;DHT22;32377;52.182;5.398;2023-03-01T05:45:41;-2.50;99.90
46652;DHT22;32377;52.182;5.398;2023-03-01T05:48:08;-2.60;99.90
46652;DHT22;32377;52.182;5.398;2023-03-01T05:50:37;-2.70;99.90
46652;DHT22;32377;52.182;5.398;2023-03-01T05:53:14;-2.70;99.90
46652;DHT22;32377;52.182;5.398;2023-03-01T05:55:40;-2.70;99.90
46652;DHT22;32377;52.182;5.398;2023-03-01T05:58:09;-2.70;99.90
46652;DHT22;32377;52.182;5.398;2023-03-01T06:00:35;-2.70;99.90
46652;DHT22;32377;52.182;5.398;2023-03-01T06:03:01;-2.70;99.90
46652;DHT22;32377;52.182;5.398;2023-03-01T06:05:27;-2.70;99.90
46652;DHT22;32377;52.182;5.398;2023-03-01T06:07:53;-2.70;99.90
46652;DHT22;32377;52.182;5.398;2023-03-01T06:10:20;-2.60;99.90
46652;DHT22;32377;52.182;5.398;2023-03-01T06:12:47;-2.60;99.90
46652;DHT22;32377;52.182;5.398;2023-03-01T06:15:14;-2.60;99.90
46652;DHT22;32377;52.182;5.398;2023-03-01T06:17:42;-2.60;99.90
46652;DHT22;32377;52.182;5.398;2023-03-01T06:22:35;-2.70;99.90
46652;DHT22;32377;52.182;5.398;2023-03-01T06:25:01;-2.70;99.90
46652;DHT22;32377;52.182;5.398;2023-03-01T06:27:27;-2.70;99.90
46652;DHT22;32377;52.182;5.398;2023-03-01T06:29:53;-2.70;99.90
46652;DHT22;32377;52.182;5.398;2023-03-01T06:32:18;-2.70;99.90
46652;DHT22;32377;52.182;5.398;2023-03-01T06:34:44;-2.70;99.90
46652;DHT22;32377;52.182;5.398;2023-03-01T06:37:10;-2.70;99.90
46652;DHT22;32377;52.182;5.398;2023-03-01T06:39:36;-2.70;99.90
46652;DHT22;32377;52.182;5.398;2023-03-01T06:42:01;-2.70;99.90
46652;DHT22;32377;52.182;5.398;2023-03-01T06:44:27;-2.70;99.90
46652;DHT22;32377;52.182;5.398;2023-03-01T06:46:53;-2.70;99.90
46652;DHT22;32377;52.182;5.398;2023-03-01T06:49:19;-2.70;99.90
46652;DHT22;32377;52.182;5.398;2023-03-01T06:51:45;-2.60;99.90
46652;DHT22;32377;52.182;5.398;2023-03-01T06:54:11;-2.60;99.90
46652;DHT22;32377;52.182;5.398;2023-03-01T06:56:37;-2.60;99.90
46652;DHT22;32377;52.182;5.398;2023-03-01T06:59:03;-2.60;99.90
46652;DHT22;32377;52.182;5.398;2023-03-01T07:01:29;-2.50;99.90
46652;DHT22;32377;52.182;5.398;2023-03-01T07:03:55;-2.50;99.90
46652;DHT22;32377;52.182;5.398;2023-03-01T07:06:21;-2.50;99.90
46652;DHT22;32377;52.182;5.398;2023-03-01T07:08:47;-2.50;99.90
46652;DHT22;32377;52.182;5.398;2023-03-01T07:11:13;-2.50;99.90
46652;DHT22;32377;52.182;5.398;2023-03-01T07:13:39;-2.40;99.90
46652;DHT22;32377;52.182;5.398;2023-03-01T07:16:05;-2.40;99.90
46652;DHT22;32377;52.182;5.398;2023-03-01T07:18:31;-2.30;99.90
46652;DHT22;32377;52.182;5.398;2023-03-01T07:20:57;-2.20;99.90
46652;DHT22;32377;52.182;5.398;2023-03-01T07:23:22;-2.20;99.90
46652;DHT22;32377;52.182;5.398;2023-03-01T07:25:53;-2.10;99.90
46652;DHT22;32377;52.182;5.398;2023-03-01T07:28:18;-2.00;99.90
46652;DHT22;32377;52.182;5.398;2023-03-01T07:30:44;-1.70;99.90
46652;DHT22;32377;52.182;5.398;2023-03-01T07:33:10;-1.60;99.90
46652;DHT22;32377;52.182;5.398;2023-03-01T07:35:35;-1.50;99.90
46652;DHT22;32377;52.182;5.398;2023-03-01T07:38:01;-1.40;99.90
46652;DHT22;32377;52.182;5.398;2023-03-01T07:40:26;-1.30;99.90
46652;DHT22;32377;52.182;5.398;2023-03-01T07:42:58;-1.20;99.90
46652;DHT22;32377;52.182;5.398;2023-03-01T07:45:25;-1.10;99.90
46652;DHT22;32377;52.182;5.398;2023-03-01T07:47:52;-1.00;99.90
46652;DHT22;32377;52.182;5.398;2023-03-01T07:50:18;-1.00;99.90
46652;DHT22;32377;52.182;5.398;2023-03-01T07:52:48;-0.90;99.90
46652;DHT22;32377;52.182;5.398;2023-03-01T07:55:14;-0.80;99.90
46652;DHT22;32377;52.182;5.398;2023-03-01T07:57:40;-0.80;99.90
46652;DHT22;32377;52.182;5.398;2023-03-01T08:00:07;-0.80;99.90
46652;DHT22;32377;52.182;5.398;2023-03-01T08:02:33;-0.70;99.90
46652;DHT22;32377;52.182;5.398;2023-03-01T08:04:59;-0.60;99.90
46652;DHT22;32377;52.182;5.398;2023-03-01T08:07:24;-0.50;99.90
46652;DHT22;32377;52.182;5.398;2023-03-01T08:09:50;-0.50;99.90
46652;DHT22;32377;52.182;5.398;2023-03-01T08:12:15;-0.40;99.90
46652;DHT22;32377;52.182;5.398;2023-03-01T08:14:43;-0.30;99.90
46652;DHT22;32377;52.182;5.398;2023-03-01T08:17:09;-0.20;99.90
46652;DHT22;32377;52.182;5.398;2023-03-01T08:19:35;0.00;99.90
46652;DHT22;32377;52.182;5.398;2023-03-01T08:22:04;0.10;99.90
46652;DHT22;32377;52.182;5.398;2023-03-01T08:24:29;0.20;99.90
46652;DHT22;32377;52.182;5.398;2023-03-01T08:26:55;0.40;99.90
46652;DHT22;32377;52.182;5.398;2023-03-01T08:29:21;0.50;99.90
46652;DHT22;32377;52.182;5.398;2023-03-01T08:31:47;0.60;99.90
46652;DHT22;32377;52.182;5.398;2023-03-01T08:34:15;0.80;99.90
46652;DHT22;32377;52.182;5.398;2023-03-01T08:36:42;0.90;99.90
46652;DHT22;32377;52.182;5.398;2023-03-01T08:39:11;1.10;99.90
46652;DHT22;32377;52.182;5.398;2023-03-01T08:41:37;1.20;99.90
46652;DHT22;32377;52.182;5.398;2023-03-01T08:44:03;1.30;99.90
46652;DHT22;32377;52.182;5.398;2023-03-01T08:46:31;1.40;99.90
46652;DHT22;32377;52.182;5.398;2023-03-01T08:48:57;1.60;99.90
46652;DHT22;32377;52.182;5.398;2023-03-01T08:51:23;1.70;99.90
46652;DHT22;32377;52.182;5.398;2023-03-01T08:53:49;1.80;99.90
46652;DHT22;32377;52.182;5.398;2023-03-01T08:56:16;1.80;99.90
46652;DHT22;32377;52.182;5.398;2023-03-01T08:58:48;1.90;99.90
46652;DHT22;32377;52.182;5.398;2023-03-01T09:01:18;2.10;99.90
46652;DHT22;32377;52.182;5.398;2023-03-01T09:03:45;2.30;99.90
46652;DHT22;32377;52.182;5.398;2023-03-01T09:06:11;2.30;99.90
46652;DHT22;32377;52.182;5.398;2023-03-01T09:08:38;2.50;99.90
46652;DHT22;32377;52.182;5.398;2023-03-01T09:11:09;2.50;99.90
46652;DHT22;32377;52.182;5.398;2023-03-01T09:13:36;2.60;99.90
46652;DHT22;32377;52.182;5.398;2023-03-01T09:16:03;2.70;99.90
46652;DHT22;32377;52.182;5.398;2023-03-01T09:18:29;2.90;99.90
46652;DHT22;32377;52.182;5.398;2023-03-01T09:23:27;3.10;99.90
46652;DHT22;32377;52.182;5.398;2023-03-01T09:25:53;3.20;99.90
46652;DHT22;32377;52.182;5.398;2023-03-01T09:28:18;3.30;99.90
46652;DHT22;32377;52.182;5.398;2023-03-01T09:30:44;3.30;99.90
46652;DHT22;32377;52.182;5.398;2023-03-01T09:33:09;3.40;99.90
46652;DHT22;32377;52.182;5.398;2023-03-01T09:35:40;3.50;99.90
46652;DHT22;32377;52.182;5.398;2023-03-01T09:38:11;3.50;99.90
46652;DHT22;32377;52.182;5.398;2023-03-01T09:40:42;3.60;99.90
46652;DHT22;32377;52.182;5.398;2023-03-01T09:43:41;3.70;99.90
46652;DHT22;32377;52.182;5.398;2023-03-01T09:46:10;3.80;99.90
46652;DHT22;32377;52.182;5.398;2023-03-01T09:48:48;3.90;99.90
46652;DHT22;32377;52.182;5.398;2023-03-01T09:51:19;3.90;99.90
46652;DHT22;32377;52.182;5.398;2023-03-01T09:53:46;4.00;99.90
46652;DHT22;32377;52.182;5.398;2023-03-01T09:59:20;4.30;99.90
46652;DHT22;32377;52.182;5.398;2023-03-01T10:01:59;4.30;99.90
46652;DHT22;32377;52.182;5.398;2023-03-01T10:04:48;4.40;99.90
46652;DHT22;32377;52.182;5.398;2023-03-01T10:10:10;4.60;99.90
46652;DHT22;32377;52.182;5.398;2023-03-01T10:12:41;4.70;99.90
46652;DHT22;32377;52.182;5.398;2023-03-01T10:15:18;4.80;99.90
46652;DHT22;32377;52.182;5.398;2023-03-01T10:18:05;4.80;99.90
46652;DHT22;32377;52.182;5.398;2023-03-01T10:23:24;4.90;99.90
46652;DHT22;32377;52.182;5.398;2023-03-01T10:28:25;5.10;99.90
46652;DHT22;32377;52.182;5.398;2023-03-01T10:30:51;5.20;99.90
46652;DHT22;32377;52.182;5.398;2023-03-01T10:33:26;5.10;99.90
46652;DHT22;32377;52.182;5.398;2023-03-01T10:35:53;5.20;99.90
46652;DHT22;32377;52.182;5.398;2023-03-01T10:38:19;5.20;99.90
46652;DHT22;32377;52.182;5.398;2023-03-01T10:40:57;5.20;99.90
46652;DHT22;32377;52.182;5.398;2023-03-01T10:43:42;5.20;99.90
46652;DHT22;32377;52.182;5.398;2023-03-01T10:46:32;5.20;99.90
46652;DHT22;32377;52.182;5.398;2023-03-01T10:51:45;5.30;99.90
46652;DHT22;32377;52.182;5.398;2023-03-01T10:54:28;5.30;99.90
46652;DHT22;32377;52.182;5.398;2023-03-01T10:59:30;5.40;99.90
46652;DHT22;32377;52.182;5.398;2023-03-01T11:04:35;5.40;99.90
46652;DHT22;32377;52.182;5.398;2023-03-01T11:07:01;5.50;99.90
46652;DHT22;32377;52.182;5.398;2023-03-01T11:09:31;5.50;99.90
46652;DHT22;32377;52.182;5.398;2023-03-01T11:12:04;5.60;99.90
46652;DHT22;32377;52.182;5.398;2023-03-01T11:14:37;5.60;99.90
46652;DHT22;32377;52.182;5.398;2023-03-01T11:17:23;5.70;99.90
46652;DHT22;32377;52.182;5.398;2023-03-01T11:22:31;5.90;99.90
46652;DHT22;32377;52.182;5.398;2023-03-01T11:24:58;5.90;99.90
46652;DHT22;32377;52.182;5.398;2023-03-01T11:27:28;5.90;99.90
46652;DHT22;32377;52.182;5.398;2023-03-01T11:29:58;6.00;99.90
46652;DHT22;32377;52.182;5.398;2023-03-01T11:32:28;5.80;99.90
46652;DHT22;32377;52.182;5.398;2023-03-01T11:35:02;5.90;99.90
46652;DHT22;32377;52.182;5.398;2023-03-01T11:43:05;6.00;99.90
46652;DHT22;32377;52.182;5.398;2023-03-01T11:51:23;6.10;99.90
46652;DHT22;32377;52.182;5.398;2023-03-01T11:56:40;6.10;99.90
46652;DHT22;32377;52.182;5.398;2023-03-01T12:02:01;6.10;99.90
46652;DHT22;32377;52.182;5.398;2023-03-01T12:09:49;6.30;99.90
46652;DHT22;32377;52.182;5.398;2023-03-01T12:20:23;6.40;99.90
46652;DHT22;32377;52.182;5.398;2023-03-01T12:25:47;6.50;99.90
46652;DHT22;32377;52.182;5.398;2023-03-01T12:28:43;6.50;99.90
46652;DHT22;32377;52.182;5.398;2023-03-01T12:31:53;6.50;99.90
46652;DHT22;32377;52.182;5.398;2023-03-01T12:51:05;6.70;99.90
46652;DHT22;32377;52.182;5.398;2023-03-01T12:53:37;6.70;99.90
46652;DHT22;32377;52.182;5.398;2023-03-01T12:56:25;6.90;99.30
46652;DHT22;32377;52.182;5.398;2023-03-01T13:02:13;6.80;99.30
46652;DHT22;32377;52.182;5.398;2023-03-01T13:05:05;6.90;98.60
46652;DHT22;32377;52.182;5.398;2023-03-01T13:07:55;6.80;98.90
46652;DHT22;32377;52.182;5.398;2023-03-01T13:18:00;6.90;98.20
46652;DHT22;32377;52.182;5.398;2023-03-01T13:23:34;7.00;98.10
46652;DHT22;32377;52.182;5.398;2023-03-01T13:28:47;7.10;98.70
46652;DHT22;32377;52.182;5.398;2023-03-01T13:33:42;7.10;98.10
46652;DHT22;32377;52.182;5.398;2023-03-01T13:36:08;7.10;98.00
46652;DHT22;32377;52.182;5.398;2023-03-01T13:41:08;7.10;98.20
46652;DHT22;32377;52.182;5.398;2023-03-01T13:43:38;7.10;99.10
46652;DHT22;32377;52.182;5.398;2023-03-01T13:46:11;7.10;99.20
46652;DHT22;32377;52.182;5.398;2023-03-01T13:48:39;7.10;99.20
46652;DHT22;32377;52.182;5.398;2023-03-01T13:51:08;7.20;98.00
46652;DHT22;32377;52.182;5.398;2023-03-01T13:53:38;7.10;99.30
46652;DHT22;32377;52.182;5.398;2023-03-01T13:56:24;7.10;98.30
46652;DHT22;32377;52.182;5.398;2023-03-01T13:59:05;7.10;98.80
46652;DHT22;32377;52.182;5.398;2023-03-01T14:01:34;7.20;98.30
46652;DHT22;32377;52.182;5.398;2023-03-01T14:04:01;7.20;98.10
46652;DHT22;32377;52.182;5.398;2023-03-01T14:06:29;7.20;98.70
46652;DHT22;32377;52.182;5.398;2023-03-01T14:14:27;7.10;98.50
46652;DHT22;32377;52.182;5.398;2023-03-01T14:19:42;7.10;99.00
46652;DHT22;32377;52.182;5.398;2023-03-01T14:22:26;7.20;99.10
46652;DHT22;32377;52.182;5.398;2023-03-01T14:25:02;7.20;98.70
46652;DHT22;32377;52.182;5.398;2023-03-01T14:27:39;7.20;98.10
46652;DHT22;32377;52.182;5.398;2023-03-01T14:30:22;7.10;97.90
46652;DHT22;32377;52.182;5.398;2023-03-01T14:33:01;7.30;97.60
46652;DHT22;32377;52.182;5.398;2023-03-01T14:35:29;7.30;98.60
46652;DHT22;32377;52.182;5.398;2023-03-01T14:37:55;7.30;98.50
46652;DHT22;32377;52.182;5.398;2023-03-01T14:42:53;7.20;97.90
46652;DHT22;32377;52.182;5.398;2023-03-01T14:45:19;7.30;98.90
46652;DHT22;32377;52.182;5.398;2023-03-01T14:47:45;7.30;97.80
46652;DHT22;32377;52.182;5.398;2023-03-01T14:50:32;7.40;97.90
46652;DHT22;32377;52.182;5.398;2023-03-01T14:53:03;7.40;98.10
46652;DHT22;32377;52.182;5.398;2023-03-01T14:55:38;7.40;98.40
46652;DHT22;32377;52.182;5.398;2023-03-01T14:58:11;7.40;97.70
46652;DHT22;32377;52.182;5.398;2023-03-01T15:00:37;7.40;97.70
46652;DHT22;32377;52.182;5.398;2023-03-01T15:03:11;7.40;97.90
46652;DHT22;32377;52.182;5.398;2023-03-01T15:05:39;7.40;97.60
46652;DHT22;32377;52.182;5.398;2023-03-01T15:08:06;7.40;98.60
46652;DHT22;32377;52.182;5.398;2023-03-01T15:10:36;7.40;98.00
46652;DHT22;32377;52.182;5.398;2023-03-01T15:13:22;7.30;97.50
46652;DHT22;32377;52.182;5.398;2023-03-01T15:15:49;7.30;98.40
46652;DHT22;32377;52.182;5.398;2023-03-01T15:18:26;7.20;98.70
46652;DHT22;32377;52.182;5.398;2023-03-01T15:20:53;7.20;98.30
46652;DHT22;32377;52.182;5.398;2023-03-01T15:25:47;7.20;98.70
46652;DHT22;32377;52.182;5.398;2023-03-01T15:28:23;7.10;99.30
46652;DHT22;32377;52.182;5.398;2023-03-01T15:30:55;7.10;99.10
46652;DHT22;32377;52.182;5.398;2023-03-01T15:35:51;7.20;99.50
46652;DHT22;32377;52.182;5.398;2023-03-01T15:38:54;7.10;98.70
46652;DHT22;32377;52.182;5.398;2023-03-01T15:43:57;7.10;99.00
46652;DHT22;32377;52.182;5.398;2023-03-01T15:46:34;7.10;98.80
46652;DHT22;32377;52.182;5.398;2023-03-01T15:49:26;7.10;98.80
46652;DHT22;32377;52.182;5.398;2023-03-01T15:51:54;7.10;98.50
46652;DHT22;32377;52.182;5.398;2023-03-01T15:54:23;7.10;98.60
46652;DHT22;32377;52.182;5.398;2023-03-01T15:56:49;7.10;98.50
46652;DHT22;32377;52.182;5.398;2023-03-01T15:59:16;7.00;98.30
46652;DHT22;32377;52.182;5.398;2023-03-01T16:01:42;7.00;98.70
46652;DHT22;32377;52.182;5.398;2023-03-01T16:04:12;7.00;99.20
46652;DHT22;32377;52.182;5.398;2023-03-01T16:06:51;6.90;99.70
46652;DHT22;32377;52.182;5.398;2023-03-01T16:09:21;6.80;99.70
46652;DHT22;32377;52.182;5.398;2023-03-01T16:11:47;6.80;99.50
46652;DHT22;32377;52.182;5.398;2023-03-01T16:14:13;6.70;99.20
46652;DHT22;32377;52.182;5.398;2023-03-01T16:16:39;6.70;99.80
46652;DHT22;32377;52.182;5.398;2023-03-01T16:19:05;6.70;99.80
46652;DHT22;32377;52.182;5.398;2023-03-01T16:21:31;6.70;99.50
46652;DHT22;32377;52.182;5.398;2023-03-01T16:23:56;6.60;99.50
46652;DHT22;32377;52.182;5.398;2023-03-01T16:26:22;6.60;99.90
46652;DHT22;32377;52.182;5.398;2023-03-01T16:28:48;6.50;99.90
46652;DHT22;32377;52.182;5.398;2023-03-01T16:31:17;6.60;99.40
46652;DHT22;32377;52.182;5.398;2023-03-01T16:33:44;6.60;99.50
46652;DHT22;32377;52.182;5.398;2023-03-01T16:36:16;6.60;99.90
46652;DHT22;32377;52.182;5.398;2023-03-01T16:38:42;6.50;99.60
46652;DHT22;32377;52.182;5.398;2023-03-01T16:41:13;6.50;99.50
46652;DHT22;32377;52.182;5.398;2023-03-01T16:43:39;6.50;99.90
46652;DHT22;32377;52.182;5.398;2023-03-01T16:46:26;6.40;99.90
46652;DHT22;32377;52.182;5.398;2023-03-01T16:48:53;6.30;99.90
46652;DHT22;32377;52.182;5.398;2023-03-01T16:51:19;6.30;99.90
46652;DHT22;32377;52.182;5.398;2023-03-01T16:53:45;6.30;99.90
46652;DHT22;32377;52.182;5.398;2023-03-01T16:59:10;6.20;99.90
46652;DHT22;32377;52.182;5.398;2023-03-01T17:01:36;6.10;99.90
46652;DHT22;32377;52.182;5.398;2023-03-01T17:04:06;6.00;99.90
46652;DHT22;32377;52.182;5.398;2023-03-01T17:06:32;5.90;99.90
46652;DHT22;32377;52.182;5.398;2023-03-01T17:08:58;5.80;99.90
46652;DHT22;32377;52.182;5.398;2023-03-01T17:11:25;5.80;99.90
46652;DHT22;32377;52.182;5.398;2023-03-01T17:13:50;5.70;99.90
46652;DHT22;32377;52.182;5.398;2023-03-01T17:16:18;5.60;99.90
46652;DHT22;32377;52.182;5.398;2023-03-01T17:18:45;5.50;99.90
46652;DHT22;32377;52.182;5.398;2023-03-01T17:21:11;5.50;99.90
46652;DHT22;32377;52.182;5.398;2023-03-01T17:23:38;5.40;99.90
46652;DHT22;32377;52.182;5.398;2023-03-01T17:26:05;5.40;99.90
46652;DHT22;32377;52.182;5.398;2023-03-01T17:28:33;5.40;99.90
46652;DHT22;32377;52.182;5.398;2023-03-01T17:31:01;5.40;99.90
46652;DHT22;32377;52.182;5.398;2023-03-01T17:33:27;5.30;99.90
46652;DHT22;32377;52.182;5.398;2023-03-01T17:35:55;5.30;99.90
46652;DHT22;32377;52.182;5.398;2023-03-01T17:38:21;5.30;99.90
46652;DHT22;32377;52.182;5.398;2023-03-01T17:40:47;5.30;99.90
46652;DHT22;32377;52.182;5.398;2023-03-01T17:43:14;5.30;99.90
46652;DHT22;32377;52.182;5.398;2023-03-01T17:45:40;5.20;99.90
46652;DHT22;32377;52.182;5.398;2023-03-01T17:48:09;5.10;99.90
46652;DHT22;32377;52.182;5.398;2023-03-01T17:50:37;5.00;99.90
46652;DHT22;32377;52.182;5.398;2023-03-01T17:53:03;5.10;99.90
46652;DHT22;32377;52.182;5.398;2023-03-01T17:55:34;5.00;99.90
46652;DHT22;32377;52.182;5.398;2023-03-01T17:58:00;5.00;99.90
46652;DHT22;32377;52.182;5.398;2023-03-01T18:00:25;4.90;99.90